Espanola, Washington
Current Conditions -  °F | °C
As of 2:58 AM on Thursday 23 Oct 2014 (Local Time) from KSKA Reporting Station
Broken Clouds Broken Clouds  
Wind Chill: 11°   Ceiling: 7000
Heat Index: 11°   Visibility: 10mi
Dew Point:   Wind: 13mph
Humidity: 88%   Direction: 170°S
Pressure: 29.77"   Gusts: NA
Location:  47.6094°N, 117.705°W
Report Text: KSKA 230958Z AUTO 17011KT 10SM SCT035 SCT043 BKN070 11/09 A2977 RMK AO2 RAE0943 SLP083 P0001 T01060087
Loading
Personal Weather Stations






























Interactive Weather Map
Tropical Storm Tracking
New forecast layout! Learn more

10-Day Weather Forecast

Advertisements
Track Severe Weather on mobile